Time,TemperatureF,DewpointF,PressureIn,WindDirection,WindDirectionDegrees,WindSpeedMPH,WindSpeedGustMPH,Humidity,HourlyPrecipIn,Conditions,Clouds,dailyrainin,SoftwareType,DateUTC
2013-06-03 00:01:00,63.9,59.3,29.93,NE,49,2.0,2.0,85,0.00,,,0.00,Wunderground v.1.15,2013-06-03 04:01:00,
2013-06-03 00:02:00,63.9,59.3,29.93,ENE,68,3.0,3.0,85,0.00,,,0.00,Wunderground v.1.15,2013-06-03 04:02:00,
2013-06-03 00:03:00,63.9,59.6,29.93,NNE,32,3.0,3.0,86,0.00,,,0.00,Wunderground v.1.15,2013-06-03 04:03:00,
2013-06-03 00:04:00,63.9,59.6,29.93,NE,47,3.0,3.0,86,0.00,,,0.00,Wunderground v.1.15,2013-06-03 04:04:00,
2013-06-03 00:10:00,63.8,59.2,29.93,NE,42,6.0,6.0,85,0.00,,,0.00,Wunderground v.1.15,2013-06-03 04:10:00,
2013-06-03 00:14:00,63.7,59.4,29.93,NW,326,4.0,6.0,86,0.00,,,0.00,Wunderground v.1.15,2013-06-03 04:14:00,
2013-06-03 00:19:00,63.7,59.1,29.93,NE,40,4.0,6.0,85,0.00,,,0.00,Wunderground v.1.15,2013-06-03 04:19:00,
2013-06-03 00:24:00,63.6,59.3,29.93,North,355,1.0,5.0,86,0.00,,,0.00,Wunderground v.1.15,2013-06-03 04:24:00,
2013-06-03 00:30:00,63.5,58.9,29.93,NE,41,4.0,4.0,85,0.00,,,0.00,Wunderground v.1.15,2013-06-03 04:30:00,
2013-06-03 00:35:00,63.4,58.8,29.93,ENE,74,3.0,6.0,85,0.00,,,0.00,Wunderground v.1.15,2013-06-03 04:35:00,
2013-06-03 00:41:00,63.3,58.7,29.93,ENE,57,5.0,5.0,85,0.00,,,0.00,Wunderground v.1.15,2013-06-03 04:41:00,
2013-06-03 00:47:00,63.2,58.6,29.93,NW,312,2.0,5.0,85,0.00,,,0.00,Wunderground v.1.15,2013-06-03 04:47:00,
2013-06-03 00:53:00,63.0,58.7,29.93,NNE,24,0.0,4.0,86,0.00,,,0.00,Wunderground v.1.15,2013-06-03 04:53:00,
2013-06-03 00:59:00,62.9,58.6,29.93,NE,44,3.0,4.0,86,0.00,,,0.00,Wunderground v.1.15,2013-06-03 04:59:00,
2013-06-03 01:05:00,62.8,58.5,29.94,NE,36,0.0,5.0,86,0.00,,,0.00,Wunderground v.1.15,2013-06-03 05:05:00,
2013-06-03 01:12:00,62.7,58.5,29.94,NW,313,1.0,3.0,86,0.00,,,0.00,Wunderground v.1.15,2013-06-03 05:12:00,
2013-06-03 01:18:00,62.5,57.9,29.93,NNW,331,9.0,9.0,85,0.00,,,0.00,Wunderground v.1.15,2013-06-03 05:18:00,
2013-06-03 01:23:00,62.4,57.8,29.94,NE,53,1.0,6.0,85,0.00,,,0.00,Wunderground v.1.15,2013-06-03 05:23:00,
2013-06-03 01:29:00,62.4,57.8,29.94,NE,48,2.0,6.0,85,0.00,,,0.00,Wunderground v.1.15,2013-06-03 05:29:00,
2013-06-03 01:34:00,62.2,57.6,29.94,NE,43,0.0,10.0,85,0.00,,,0.00,Wunderground v.1.15,2013-06-03 05:34:00,
2013-06-03 01:40:00,62.1,57.5,29.94,NNE,22,3.0,3.0,85,0.00,,,0.00,Wunderground v.1.15,2013-06-03 05:40:00,
2013-06-03 01:45:00,62.0,57.1,29.94,North,360,1.0,6.0,84,0.00,,,0.00,Wunderground v.1.15,2013-06-03 05:45:00,
2013-06-03 01:50:00,62.0,57.4,29.94,NE,54,2.0,3.0,85,0.00,,,0.00,Wunderground v.1.15,2013-06-03 05:50:00,
2013-06-03 01:57:00,61.9,57.3,29.94,NE,36,2.0,3.0,85,0.00,,,0.00,Wunderground v.1.15,2013-06-03 05:57:00,
2013-06-03 02:02:00,61.8,56.9,29.94,NNW,347,2.0,5.0,84,0.00,,,0.00,Wunderground v.1.15,2013-06-03 06:02:00,
2013-06-03 02:07:00,61.8,56.9,29.94,NE,34,0.0,5.0,84,0.00,,,0.00,Wunderground v.1.15,2013-06-03 06:07:00,
2013-06-03 02:12:00,61.7,56.8,29.94,NE,55,4.0,4.0,84,0.00,,,0.00,Wunderground v.1.15,2013-06-03 06:12:00,
2013-06-03 02:17:00,61.6,56.7,29.94,ENE,63,3.0,9.0,84,0.00,,,0.00,Wunderground v.1.15,2013-06-03 06:17:00,
2013-06-03 02:22:00,61.5,56.6,29.95,ENE,59,4.0,8.0,84,0.00,,,0.00,Wunderground v.1.15,2013-06-03 06:22:00,
2013-06-03 02:27:00,61.4,56.5,29.94,NNE,30,5.0,8.0,84,0.00,,,0.00,Wunderground v.1.15,2013-06-03 06:27:00,
2013-06-03 02:32:00,61.3,56.4,29.94,NE,38,3.0,4.0,84,0.00,,,0.00,Wunderground v.1.15,2013-06-03 06:32:00,
2013-06-03 02:37:00,61.3,56.4,29.94,NE,43,4.0,11.0,84,0.00,,,0.00,Wunderground v.1.15,2013-06-03 06:37:00,
2013-06-03 02:42:00,61.2,56.3,29.94,NNW,330,3.0,5.0,84,0.00,,,0.00,Wunderground v.1.15,2013-06-03 06:42:00,
2013-06-03 02:47:00,61.2,56.3,29.95,NNW,340,0.0,7.0,84,0.00,,,0.00,Wunderground v.1.15,2013-06-03 06:47:00,
2013-06-03 02:52:00,61.1,56.2,29.95,North,360,1.0,5.0,84,0.00,,,0.00,Wunderground v.1.15,2013-06-03 06:52:00,
2013-06-03 02:57:00,61.1,56.6,29.95,NE,45,1.0,5.0,85,0.00,,,0.00,Wunderground v.1.15,2013-06-03 06:57:00,
2013-06-03 03:02:00,60.9,56.0,29.95,North,355,3.0,8.0,84,0.00,,,0.00,Wunderground v.1.15,2013-06-03 07:02:00,
2013-06-03 03:07:00,60.9,56.0,29.95,North,11,1.0,8.0,84,0.00,,,0.00,Wunderground v.1.15,2013-06-03 07:07:00,
2013-06-03 03:12:00,60.8,56.3,29.95,NE,38,2.0,4.0,85,0.00,,,0.00,Wunderground v.1.15,2013-06-03 07:12:00,
2013-06-03 03:17:00,60.8,56.3,29.95,NE,34,4.0,4.0,85,0.00,,,0.00,Wunderground v.1.15,2013-06-03 07:17:00,
2013-06-03 03:22:00,60.7,56.2,29.95,NE,38,5.0,5.0,85,0.00,,,0.00,Wunderground v.1.15,2013-06-03 07:22:00,
2013-06-03 03:28:00,60.7,56.2,29.95,NNW,327,0.0,5.0,85,0.00,,,0.00,Wunderground v.1.15,2013-06-03 07:28:00,
2013-06-03 03:33:00,60.5,55.6,29.96,NE,43,3.0,9.0,84,0.00,,,0.00,Wunderground v.1.15,2013-06-03 07:33:00,
2013-06-03 03:38:00,60.4,55.2,29.96,NE,43,5.0,9.0,83,0.00,,,0.00,Wunderground v.1.15,2013-06-03 07:38:00,
2013-06-03 03:43:00,60.2,54.7,29.96,North,360,4.0,13.0,82,0.00,,,0.00,Wunderground v.1.15,2013-06-03 07:43:00,
2013-06-03 03:48:00,60.0,54.5,29.96,NE,44,6.0,13.0,82,0.00,,,0.00,Wunderground v.1.15,2013-06-03 07:48:00,
2013-06-03 03:53:00,59.9,54.4,29.96,NE,41,4.0,7.0,82,0.00,,,0.00,Wunderground v.1.15,2013-06-03 07:53:00,
2013-06-03 03:58:00,59.8,54.0,29.96,NE,36,6.0,8.0,81,0.00,,,0.00,Wunderground v.1.15,2013-06-03 07:58:00,
2013-06-03 04:03:00,59.7,53.9,29.96,NE,46,5.0,10.0,81,0.00,,,0.00,Wunderground v.1.15,2013-06-03 08:03:00,
2013-06-03 04:08:00,59.6,54.1,29.96,North,360,4.0,10.0,82,0.00,,,0.00,Wunderground v.1.15,2013-06-03 08:08:00,
2013-06-03 04:14:00,59.6,54.4,29.96,NNE,31,2.0,7.0,83,0.00,,,0.00,Wunderground v.1.15,2013-06-03 08:14:00,
2013-06-03 04:19:00,59.4,53.9,29.96,NNE,32,8.0,8.0,82,0.00,,,0.00,Wunderground v.1.15,2013-06-03 08:19:00,
2013-06-03 04:24:00,59.3,53.8,29.96,North,10,9.0,9.0,82,0.00,,,0.00,Wunderground v.1.15,2013-06-03 08:24:00,
2013-06-03 04:29:00,59.0,53.5,29.96,ENE,58,6.0,9.0,82,0.00,,,0.00,Wunderground v.1.15,2013-06-03 08:29:00,
2013-06-03 04:34:00,58.8,53.3,29.96,NE,46,3.0,10.0,82,0.00,,,0.00,Wunderground v.1.15,2013-06-03 08:34:00,
2013-06-03 04:39:00,58.6,53.1,29.97,NE,46,1.0,10.0,82,0.00,,,0.00,Wunderground v.1.15,2013-06-03 08:39:00,
2013-06-03 04:44:00,58.4,53.3,29.97,NE,43,3.0,9.0,83,0.00,,,0.00,Wunderground v.1.15,2013-06-03 08:44:00,
2013-06-03 04:49:00,58.2,53.1,29.97,NNE,24,3.0,9.0,83,0.00,,,0.00,Wunderground v.1.15,2013-06-03 08:49:00,
2013-06-03 04:54:00,58.1,53.0,29.97,NE,51,3.0,6.0,83,0.00,,,0.00,Wunderground v.1.15,2013-06-03 08:54:00,
2013-06-03 04:59:00,57.8,52.7,29.97,North,355,3.0,9.0,83,0.00,,,0.00,Wunderground v.1.15,2013-06-03 08:59:00,
2013-06-03 05:04:00,57.7,52.6,29.97,NNW,339,3.0,10.0,83,0.00,,,0.00,Wunderground v.1.15,2013-06-03 09:04:00,
2013-06-03 05:09:00,57.5,52.0,29.97,NNW,327,5.0,10.0,82,0.00,,,0.00,Wunderground v.1.15,2013-06-03 09:09:00,
2013-06-03 05:14:00,57.3,51.9,29.97,North,360,4.0,9.0,82,0.00,,,0.00,Wunderground v.1.15,2013-06-03 09:14:00,
2013-06-03 05:19:00,57.2,52.1,29.97,NE,39,5.0,9.0,83,0.00,,,0.00,Wunderground v.1.15,2013-06-03 09:19:00,
2013-06-03 05:24:00,57.1,51.7,29.97,NE,44,4.0,9.0,82,0.00,,,0.00,Wunderground v.1.15,2013-06-03 09:24:00,
2013-06-03 05:29:00,56.9,51.8,29.97,NNE,12,4.0,10.0,83,0.00,,,0.00,Wunderground v.1.15,2013-06-03 09:29:00,
2013-06-03 05:34:00,56.8,51.4,29.97,NE,34,4.0,10.0,82,0.00,,,0.00,Wunderground v.1.15,2013-06-03 09:34:00,
2013-06-03 05:39:00,56.8,51.7,29.98,North,5,1.0,10.0,83,0.00,,,0.00,Wunderground v.1.15,2013-06-03 09:39:00,
2013-06-03 05:45:00,56.7,51.9,29.98,NE,46,2.0,9.0,84,0.00,,,0.00,Wunderground v.1.15,2013-06-03 09:45:00,
2013-06-03 05:50:00,56.6,51.8,29.98,NE,44,0.0,3.0,84,0.00,,,0.00,Wunderground v.1.15,2013-06-03 09:50:00,
2013-06-03 05:56:00,56.4,51.3,29.98,NE,34,3.0,8.0,83,0.00,,,0.00,Wunderground v.1.15,2013-06-03 09:56:00,
2013-06-03 06:01:00,56.1,50.3,29.99,NE,39,10.0,10.0,81,0.00,,,0.00,Wunderground v.1.15,2013-06-03 10:01:00,
2013-06-03 06:06:00,55.9,49.8,29.98,NE,37,6.0,11.0,80,0.00,,,0.00,Wunderground v.1.15,2013-06-03 10:06:00,
2013-06-03 06:11:00,55.7,49.6,29.99,NNE,17,4.0,12.0,80,0.00,,,0.00,Wunderground v.1.15,2013-06-03 10:11:00,
2013-06-03 06:16:00,55.6,49.9,29.99,NNE,19,8.0,12.0,81,0.00,,,0.00,Wunderground v.1.15,2013-06-03 10:16:00,
2013-06-03 06:21:00,55.5,49.8,29.99,North,355,1.0,5.0,81,0.00,,,0.00,Wunderground v.1.15,2013-06-03 10:21:00,
2013-06-03 06:26:00,55.5,49.8,29.99,NNW,348,4.0,9.0,81,0.00,,,0.00,Wunderground v.1.15,2013-06-03 10:26:00,
2013-06-03 06:31:00,55.5,50.1,29.99,NNW,340,1.0,6.0,82,0.00,,,0.00,Wunderground v.1.15,2013-06-03 10:31:00,
2013-06-03 06:36:00,55.5,49.8,30.00,NNE,32,2.0,9.0,81,0.00,,,0.00,Wunderground v.1.15,2013-06-03 10:36:00,
2013-06-03 06:41:00,55.5,49.8,30.00,North,350,6.0,6.0,81,0.00,,,0.00,Wunderground v.1.15,2013-06-03 10:41:00,
2013-06-03 06:46:00,55.4,49.7,30.00,NE,46,4.0,9.0,81,0.00,,,0.00,Wunderground v.1.15,2013-06-03 10:46:00,
2013-06-03 06:51:00,55.4,49.7,30.00,NE,39,6.0,9.0,81,0.00,,,0.00,Wunderground v.1.15,2013-06-03 10:51:00,
2013-06-03 06:56:00,55.4,50.0,30.00,North,360,4.0,9.0,82,0.00,,,0.00,Wunderground v.1.15,2013-06-03 10:56:00,
2013-06-03 07:01:00,55.4,50.0,30.00,North,355,0.0,4.0,82,0.00,,,0.00,Wunderground v.1.15,2013-06-03 11:01:00,
2013-06-03 07:07:00,55.4,50.0,30.00,NE,48,3.0,7.0,82,0.00,,,0.00,Wunderground v.1.15,2013-06-03 11:07:00,
2013-06-03 07:12:00,55.5,50.1,30.00,NE,41,3.0,6.0,82,0.00,,,0.00,Wunderground v.1.15,2013-06-03 11:12:00,
2013-06-03 07:17:00,55.4,50.0,30.00,NNE,26,3.0,6.0,82,0.00,,,0.00,Wunderground v.1.15,2013-06-03 11:17:00,
2013-06-03 07:22:00,55.4,50.3,30.00,NE,53,3.0,5.0,83,0.00,,,0.00,Wunderground v.1.15,2013-06-03 11:22:00,
2013-06-03 07:27:00,55.4,50.0,30.00,NNW,343,2.0,5.0,82,0.00,,,0.00,Wunderground v.1.15,2013-06-03 11:27:00,
2013-06-03 07:32:00,55.4,50.0,30.00,North,360,2.0,5.0,82,0.00,,,0.00,Wunderground v.1.15,2013-06-03 11:32:00,
2013-06-03 07:37:00,55.5,50.1,30.00,NE,44,4.0,6.0,82,0.00,,,0.00,Wunderground v.1.15,2013-06-03 11:37:00,
2013-06-03 07:42:00,55.5,50.1,30.00,NE,36,0.0,5.0,82,0.00,,,0.00,Wunderground v.1.15,2013-06-03 11:42:00,
2013-06-03 07:47:00,55.6,50.2,30.00,NNE,28,2.0,7.0,82,0.00,,,0.00,Wunderground v.1.15,2013-06-03 11:47:00,
2013-06-03 07:52:00,55.7,50.6,30.01,NW,317,1.0,4.0,83,0.00,,,0.00,Wunderground v.1.15,2013-06-03 11:52:00,
2013-06-03 07:57:00,55.8,50.7,30.00,NE,48,3.0,6.0,83,0.00,,,0.00,Wunderground v.1.15,2013-06-03 11:57:00,
2013-06-03 08:02:00,55.9,50.8,30.01,NE,35,0.0,3.0,83,0.00,,,0.00,Wunderground v.1.15,2013-06-03 12:02:00,
2013-06-03 08:07:00,56.0,50.9,30.01,NNE,27,1.0,3.0,83,0.00,,,0.00,Wunderground v.1.15,2013-06-03 12:07:00,
2013-06-03 08:12:00,56.1,50.7,30.01,ENE,65,0.0,5.0,82,0.00,,,0.00,Wunderground v.1.15,2013-06-03 12:12:00,
2013-06-03 08:17:00,56.1,50.7,30.01,NNE,15,2.0,5.0,82,0.00,,,0.00,Wunderground v.1.15,2013-06-03 12:17:00,
2013-06-03 08:22:00,56.2,50.4,30.01,NNE,13,1.0,4.0,81,0.00,,,0.00,Wunderground v.1.15,2013-06-03 12:22:00,
2013-06-03 08:27:00,56.3,50.5,30.01,NNE,13,2.0,6.0,81,0.00,,,0.00,Wunderground v.1.15,2013-06-03 12:27:00,
2013-06-03 08:33:00,56.5,50.7,30.01,NE,54,1.0,4.0,81,0.00,,,0.00,Wunderground v.1.15,2013-06-03 12:33:00,
2013-06-03 08:38:00,56.8,51.0,30.01,West,273,0.0,4.0,81,0.00,,,0.00,Wunderground v.1.15,2013-06-03 12:38:00,
2013-06-03 08:44:00,57.0,50.5,30.01,North,5,0.0,5.0,79,0.00,,,0.00,Wunderground v.1.15,2013-06-03 12:44:00,
2013-06-03 08:49:00,57.1,50.6,30.01,NNW,338,4.0,5.0,79,0.00,,,0.00,Wunderground v.1.15,2013-06-03 12:49:00,
2013-06-03 08:55:00,57.2,50.7,30.01,North,5,0.0,5.0,79,0.00,,,0.00,Wunderground v.1.15,2013-06-03 12:55:00,
2013-06-03 09:00:00,57.3,50.8,30.02,WNW,292,4.0,4.0,79,0.00,,,0.00,Wunderground v.1.15,2013-06-03 13:00:00,
2013-06-03 09:05:00,57.4,50.6,30.02,NNW,329,0.0,5.0,78,0.00,,,0.00,Wunderground v.1.15,2013-06-03 13:05:00,
2013-06-03 09:10:00,57.4,50.9,30.02,NNW,329,0.0,2.0,79,0.00,,,0.00,Wunderground v.1.15,2013-06-03 13:10:00,
2013-06-03 09:15:00,57.6,51.1,30.02,North,360,2.0,3.0,79,0.00,,,0.00,Wunderground v.1.15,2013-06-03 13:15:00,
2013-06-03 09:20:00,57.6,50.8,30.02,North,5,0.0,2.0,78,0.00,,,0.00,Wunderground v.1.15,2013-06-03 13:20:00,
2013-06-03 09:26:00,57.7,51.2,30.02,North,10,2.0,3.0,79,0.00,,,0.00,Wunderground v.1.15,2013-06-03 13:26:00,
2013-06-03 09:31:00,58.0,51.5,30.02,West,272,0.0,1.0,79,0.00,,,0.00,Wunderground v.1.15,2013-06-03 13:31:00,
2013-06-03 09:36:00,58.1,51.3,30.02,North,9,3.0,3.0,78,0.00,,,0.00,Wunderground v.1.15,2013-06-03 13:36:00,
2013-06-03 09:41:00,58.4,51.6,30.02,ENE,59,0.0,3.0,78,0.00,,,0.00,Wunderground v.1.15,2013-06-03 13:41:00,
2013-06-03 09:46:00,58.5,51.3,30.02,ENE,61,1.0,4.0,77,0.00,,,0.00,Wunderground v.1.15,2013-06-03 13:46:00,
2013-06-03 09:52:00,58.9,52.1,30.02,West,269,1.0,3.0,78,0.00,,,0.00,Wunderground v.1.15,2013-06-03 13:52:00,
2013-06-03 09:57:00,59.0,51.1,30.02,NE,40,1.0,6.0,75,0.00,,,0.00,Wunderground v.1.15,2013-06-03 13:57:00,
2013-06-03 10:03:00,59.1,51.5,30.02,NE,45,4.0,5.0,76,0.00,,,0.00,Wunderground v.1.15,2013-06-03 14:03:00,
2013-06-03 10:08:00,59.4,51.8,30.02,NNE,22,2.0,10.0,76,0.00,,,0.00,Wunderground v.1.15,2013-06-03 14:08:00,
2013-06-03 10:13:00,59.6,51.7,30.02,NE,43,3.0,6.0,75,0.00,,,0.00,Wunderground v.1.15,2013-06-03 14:13:00,
2013-06-03 10:18:00,59.7,51.8,30.03,NNE,25,3.0,6.0,75,0.00,,,0.00,Wunderground v.1.15,2013-06-03 14:18:00,
2013-06-03 10:24:00,59.7,51.8,30.03,North,355,3.0,5.0,75,0.00,,,0.00,Wunderground v.1.15,2013-06-03 14:24:00,
2013-06-03 10:29:00,60.0,52.1,30.03,NE,36,1.0,7.0,75,0.00,,,0.00,Wunderground v.1.15,2013-06-03 14:29:00,
2013-06-03 10:34:00,60.4,52.1,30.03,WSW,256,0.0,3.0,74,0.00,,,0.00,Wunderground v.1.15,2013-06-03 14:34:00,
2013-06-03 10:39:00,60.7,52.4,30.03,NW,320,1.0,8.0,74,0.00,,,0.00,Wunderground v.1.15,2013-06-03 14:39:00,
2013-06-03 10:44:00,60.9,52.6,30.03,NNW,333,1.0,7.0,74,0.00,,,0.00,Wunderground v.1.15,2013-06-03 14:44:00,
2013-06-03 10:49:00,60.9,52.6,30.04,NNE,22,3.0,8.0,74,0.00,,,0.00,Wunderground v.1.15,2013-06-03 14:49:00,
2013-06-03 10:54:00,61.1,53.1,30.04,WNW,291,2.0,4.0,75,0.00,,,0.00,Wunderground v.1.15,2013-06-03 14:54:00,
2013-06-03 11:00:00,61.3,52.9,30.04,NE,38,3.0,3.0,74,0.00,,,0.00,Wunderground v.1.15,2013-06-03 15:00:00,
2013-06-03 11:05:00,61.5,53.1,30.04,NNW,348,1.0,6.0,74,0.00,,,0.00,Wunderground v.1.15,2013-06-03 15:05:00,
2013-06-03 11:10:00,61.7,53.3,30.04,West,273,2.0,3.0,74,0.00,,,0.00,Wunderground v.1.15,2013-06-03 15:10:00,
2013-06-03 11:15:00,61.8,53.1,30.04,NE,36,5.0,6.0,73,0.00,,,0.00,Wunderground v.1.15,2013-06-03 15:15:00,
2013-06-03 11:20:00,61.9,53.5,30.04,NNW,329,2.0,5.0,74,0.00,,,0.00,Wunderground v.1.15,2013-06-03 15:20:00,
2013-06-03 11:25:00,62.3,53.9,30.04,West,279,1.0,6.0,74,0.00,,,0.00,Wunderground v.1.15,2013-06-03 15:25:00,
2013-06-03 11:30:00,63.0,54.2,30.04,North,355,0.0,3.0,73,0.00,,,0.00,Wunderground v.1.15,2013-06-03 15:30:00,
2013-06-03 11:36:00,63.2,54.4,30.04,North,355,0.0,6.0,73,0.00,,,0.00,Wunderground v.1.15,2013-06-03 15:36:00,
2013-06-03 11:41:00,63.4,54.6,30.04,NNE,22,1.0,4.0,73,0.00,,,0.00,Wunderground v.1.15,2013-06-03 15:41:00,
2013-06-03 11:46:00,63.7,54.1,30.04,NNW,327,5.0,6.0,71,0.00,,,0.00,Wunderground v.1.15,2013-06-03 15:46:00,
2013-06-03 11:51:00,63.7,54.1,30.05,NNW,336,4.0,8.0,71,0.00,,,0.00,Wunderground v.1.15,2013-06-03 15:51:00,
2013-06-03 11:56:00,63.6,54.0,30.05,WNW,300,0.0,8.0,71,0.00,,,0.00,Wunderground v.1.15,2013-06-03 15:56:00,
2013-06-03 12:01:00,63.8,54.6,30.05,North,5,1.0,8.0,72,0.00,,,0.00,Wunderground v.1.15,2013-06-03 16:01:00,
2013-06-03 12:07:00,63.8,54.2,30.05,NNE,27,8.0,8.0,71,0.00,,,0.00,Wunderground v.1.15,2013-06-03 16:07:00,
2013-06-03 12:12:00,64.1,54.1,30.05,North,360,3.0,8.0,70,0.00,,,0.00,Wunderground v.1.15,2013-06-03 16:12:00,
2013-06-03 12:17:00,64.4,54.4,30.05,North,360,3.0,8.0,70,0.00,,,0.00,Wunderground v.1.15,2013-06-03 16:17:00,
2013-06-03 12:22:00,64.4,54.4,30.05,WNW,303,3.0,7.0,70,0.00,,,0.00,Wunderground v.1.15,2013-06-03 16:22:00,
2013-06-03 12:27:00,64.9,54.5,30.05,NNE,13,3.0,8.0,69,0.00,,,0.00,Wunderground v.1.15,2013-06-03 16:27:00,
2013-06-03 12:32:00,65.1,55.1,30.05,WSW,248,7.0,9.0,70,0.00,,,0.00,Wunderground v.1.15,2013-06-03 16:32:00,
2013-06-03 12:38:00,65.2,54.8,30.05,NW,321,2.0,9.0,69,0.00,,,0.00,Wunderground v.1.15,2013-06-03 16:38:00,
2013-06-03 12:43:00,64.8,54.0,30.05,WNW,285,3.0,4.0,68,0.00,,,0.00,Wunderground v.1.15,2013-06-03 16:43:00,
2013-06-03 12:48:00,64.6,53.8,30.05,North,5,1.0,8.0,68,0.00,,,0.00,Wunderground v.1.15,2013-06-03 16:48:00,
2013-06-03 12:53:00,64.9,54.5,30.05,West,266,3.0,12.0,69,0.00,,,0.00,Wunderground v.1.15,2013-06-03 16:53:00,
2013-06-03 12:58:00,64.6,53.8,30.04,West,278,1.0,12.0,68,0.00,,,0.00,Wunderground v.1.15,2013-06-03 16:58:00,
2013-06-03 13:03:00,64.8,54.8,30.04,NE,47,2.0,8.0,70,0.00,,,0.00,Wunderground v.1.15,2013-06-03 17:03:00,
2013-06-03 13:08:00,65.9,55.0,30.04,WNW,302,4.0,8.0,68,0.00,,,0.00,Wunderground v.1.15,2013-06-03 17:08:00,
2013-06-03 13:13:00,65.9,54.2,30.04,WNW,287,4.0,6.0,66,0.00,,,0.00,Wunderground v.1.15,2013-06-03 17:13:00,
2013-06-03 13:18:00,65.9,55.0,30.04,NNE,17,3.0,7.0,68,0.00,,,0.00,Wunderground v.1.15,2013-06-03 17:18:00,
2013-06-03 13:24:00,66.3,54.6,30.03,West,276,0.0,9.0,66,0.00,,,0.00,Wunderground v.1.15,2013-06-03 17:24:00,
2013-06-03 13:29:00,66.5,54.8,30.03,NNE,25,0.0,9.0,66,0.00,,,0.00,Wunderground v.1.15,2013-06-03 17:29:00,
2013-06-03 13:34:00,67.2,55.5,30.03,NW,324,2.0,6.0,66,0.00,,,0.00,Wunderground v.1.15,2013-06-03 17:34:00,
2013-06-03 13:39:00,66.7,53.7,30.03,West,281,6.0,9.0,63,0.00,,,0.00,Wunderground v.1.15,2013-06-03 17:39:00,
2013-06-03 13:44:00,66.0,54.7,30.03,WNW,291,0.0,7.0,67,0.00,,,0.00,Wunderground v.1.15,2013-06-03 17:44:00,
2013-06-03 13:50:00,66.4,53.4,30.03,WNW,301,0.0,3.0,63,0.00,,,0.00,Wunderground v.1.15,2013-06-03 17:50:00,
2013-06-03 13:55:00,67.1,54.5,30.02,NNE,30,6.0,7.0,64,0.00,,,0.00,Wunderground v.1.15,2013-06-03 17:55:00,
2013-06-03 14:00:00,66.6,54.5,30.02,West,270,2.0,4.0,65,0.00,,,0.00,Wunderground v.1.15,2013-06-03 18:00:00,
2013-06-03 14:05:00,66.4,54.7,30.02,NW,309,0.0,5.0,66,0.00,,,0.00,Wunderground v.1.15,2013-06-03 18:05:00,
2013-06-03 14:10:00,67.5,56.2,30.02,NE,46,1.0,8.0,67,0.00,,,0.00,Wunderground v.1.15,2013-06-03 18:10:00,
2013-06-03 14:15:00,67.8,54.7,30.02,West,269,1.0,8.0,63,0.00,,,0.00,Wunderground v.1.15,2013-06-03 18:15:00,
2013-06-03 14:20:00,67.3,54.7,30.02,WSW,246,3.0,4.0,64,0.00,,,0.00,Wunderground v.1.15,2013-06-03 18:20:00,
2013-06-03 14:25:00,67.1,54.9,30.02,West,271,1.0,5.0,65,0.00,,,0.00,Wunderground v.1.15,2013-06-03 18:25:00,
2013-06-03 14:31:00,67.0,54.8,30.01,West,265,4.0,4.0,65,0.00,,,0.00,Wunderground v.1.15,2013-06-03 18:31:00,
2013-06-03 14:36:00,66.9,53.9,30.01,West,274,1.0,4.0,63,0.00,,,0.00,Wunderground v.1.15,2013-06-03 18:36:00,
2013-06-03 14:41:00,67.2,55.0,30.01,North,351,2.0,5.0,65,0.00,,,0.00,Wunderground v.1.15,2013-06-03 18:41:00,
2013-06-03 14:46:00,67.3,54.7,30.01,WNW,302,3.0,6.0,64,0.00,,,0.00,Wunderground v.1.15,2013-06-03 18:46:00,
2013-06-03 14:51:00,67.0,55.3,30.00,NE,51,2.0,7.0,66,0.00,,,0.00,Wunderground v.1.15,2013-06-03 18:51:00,
2013-06-03 14:56:00,67.9,55.7,30.00,NE,36,3.0,7.0,65,0.00,,,0.00,Wunderground v.1.15,2013-06-03 18:56:00,
2013-06-03 15:01:00,67.8,55.2,30.00,NNW,342,0.0,2.0,64,0.00,,,0.00,Wunderground v.1.15,2013-06-03 19:01:00,
2013-06-03 15:07:00,67.6,55.8,30.00,NE,42,4.0,4.0,66,0.00,,,0.00,Wunderground v.1.15,2013-06-03 19:07:00,
2013-06-03 15:12:00,67.6,55.4,30.00,NE,38,3.0,5.0,65,0.00,,,0.00,Wunderground v.1.15,2013-06-03 19:12:00,
2013-06-03 15:17:00,67.3,53.4,30.00,NNE,17,2.0,5.0,61,0.00,,,0.00,Wunderground v.1.15,2013-06-03 19:17:00,
2013-06-03 15:22:00,66.9,54.7,30.00,WSW,241,2.0,8.0,65,0.00,,,0.00,Wunderground v.1.15,2013-06-03 19:22:00,
2013-06-03 15:27:00,67.0,54.0,30.00,West,277,7.0,8.0,63,0.00,,,0.00,Wunderground v.1.15,2013-06-03 19:27:00,
2013-06-03 15:32:00,67.3,54.3,30.00,West,268,0.0,2.0,63,0.00,,,0.00,Wunderground v.1.15,2013-06-03 19:32:00,
2013-06-03 15:37:00,67.2,53.7,30.00,WSW,253,2.0,5.0,62,0.00,,,0.00,Wunderground v.1.15,2013-06-03 19:37:00,
2013-06-03 15:42:00,67.0,54.0,30.00,NW,309,2.0,4.0,63,0.00,,,0.00,Wunderground v.1.15,2013-06-03 19:42:00,
2013-06-03 15:47:00,66.6,53.6,30.00,WNW,284,0.0,4.0,63,0.00,,,0.00,Wunderground v.1.15,2013-06-03 19:47:00,
2013-06-03 15:53:00,67.5,55.3,29.99,West,265,0.0,4.0,65,0.00,,,0.00,Wunderground v.1.15,2013-06-03 19:53:00,
2013-06-03 15:58:00,68.5,55.8,29.99,West,271,2.0,7.0,64,0.00,,,0.00,Wunderground v.1.15,2013-06-03 19:58:00,
2013-06-03 16:03:00,68.5,55.0,29.99,WNW,299,1.0,4.0,62,0.00,,,0.00,Wunderground v.1.15,2013-06-03 20:03:00,
2013-06-03 16:08:00,68.9,54.4,29.99,WNW,294,1.0,4.0,60,0.00,,,0.00,Wunderground v.1.15,2013-06-03 20:08:00,
2013-06-03 16:13:00,68.7,55.2,29.99,NNE,30,2.0,7.0,62,0.00,,,0.00,Wunderground v.1.15,2013-06-03 20:13:00,
2013-06-03 16:18:00,68.8,55.7,29.99,West,277,0.0,7.0,63,0.00,,,0.00,Wunderground v.1.15,2013-06-03 20:18:00,
2013-06-03 16:23:00,68.5,53.6,29.99,NNE,14,0.0,4.0,59,0.00,,,0.00,Wunderground v.1.15,2013-06-03 20:23:00,
2013-06-03 16:29:00,68.2,56.0,29.99,WSW,255,2.0,4.0,65,0.00,,,0.00,Wunderground v.1.15,2013-06-03 20:29:00,
2013-06-03 16:34:00,68.1,55.0,29.99,West,280,0.0,3.0,63,0.00,,,0.00,Wunderground v.1.15,2013-06-03 20:34:00,
2013-06-03 16:39:00,68.1,56.3,29.99,WNW,282,0.0,3.0,66,0.00,,,0.00,Wunderground v.1.15,2013-06-03 20:39:00,
2013-06-03 16:44:00,68.5,54.1,29.99,WNW,284,2.0,3.0,60,0.00,,,0.00,Wunderground v.1.15,2013-06-03 20:44:00,
2013-06-03 16:49:00,69.3,59.1,29.99,WNW,284,0.0,3.0,70,0.00,,,0.00,Wunderground v.1.15,2013-06-03 20:49:00,
2013-06-03 16:54:00,69.2,54.3,29.99,WNW,291,3.0,3.0,59,0.00,,,0.00,Wunderground v.1.15,2013-06-03 20:54:00,
2013-06-03 16:59:00,68.7,54.7,29.99,West,280,3.0,3.0,61,0.00,,,0.00,Wunderground v.1.15,2013-06-03 20:59:00,
2013-06-03 17:04:00,68.5,55.0,29.99,NW,321,2.0,5.0,62,0.00,,,0.00,Wunderground v.1.15,2013-06-03 21:04:00,
2013-06-03 17:10:00,68.6,55.9,29.99,North,5,3.0,3.0,64,0.00,,,0.00,Wunderground v.1.15,2013-06-03 21:10:00,
2013-06-03 17:15:00,68.5,56.3,29.99,NE,36,5.0,5.0,65,0.00,,,0.00,Wunderground v.1.15,2013-06-03 21:15:00,
2013-06-03 17:20:00,68.4,55.3,29.99,NE,41,4.0,4.0,63,0.00,,,0.00,Wunderground v.1.15,2013-06-03 21:20:00,
2013-06-03 17:25:00,68.1,55.0,29.99,ENE,60,1.0,4.0,63,0.00,,,0.00,Wunderground v.1.15,2013-06-03 21:25:00,
2013-06-03 17:30:00,67.9,55.3,29.99,NW,313,0.0,2.0,64,0.00,,,0.00,Wunderground v.1.15,2013-06-03 21:30:00,
2013-06-03 17:35:00,68.1,55.5,29.99,NNE,29,0.0,2.0,64,0.00,,,0.00,Wunderground v.1.15,2013-06-03 21:35:00,
2013-06-03 17:40:00,68.0,55.8,29.99,NE,55,0.0,6.0,65,0.00,,,0.00,Wunderground v.1.15,2013-06-03 21:40:00,
2013-06-03 17:46:00,67.7,55.9,29.99,NE,45,4.0,6.0,66,0.00,,,0.00,Wunderground v.1.15,2013-06-03 21:46:00,
2013-06-03 17:51:00,67.6,55.8,29.99,NE,47,5.0,5.0,66,0.00,,,0.00,Wunderground v.1.15,2013-06-03 21:51:00,
2013-06-03 17:56:00,67.5,55.7,29.99,NE,41,0.0,5.0,66,0.00,,,0.00,Wunderground v.1.15,2013-06-03 21:56:00,
2013-06-03 18:01:00,67.4,55.6,29.99,NE,51,3.0,9.0,66,0.00,,,0.00,Wunderground v.1.15,2013-06-03 22:01:00,
2013-06-03 18:06:00,67.2,55.9,29.99,North,5,0.0,9.0,67,0.00,,,0.00,Wunderground v.1.15,2013-06-03 22:06:00,
2013-06-03 18:11:00,67.1,56.2,29.99,ENE,61,2.0,2.0,68,0.00,,,0.00,Wunderground v.1.15,2013-06-03 22:11:00,
2013-06-03 18:16:00,66.9,55.6,29.99,NE,49,3.0,5.0,67,0.00,,,0.00,Wunderground v.1.15,2013-06-03 22:16:00,
2013-06-03 18:22:00,66.7,55.4,29.99,NNE,22,1.0,4.0,67,0.00,,,0.00,Wunderground v.1.15,2013-06-03 22:22:00,
2013-06-03 18:27:00,67.0,55.7,29.98,NE,46,1.0,5.0,67,0.00,,,0.00,Wunderground v.1.15,2013-06-03 22:27:00,
2013-06-03 18:32:00,67.6,55.4,29.98,NE,46,3.0,6.0,65,0.00,,,0.00,Wunderground v.1.15,2013-06-03 22:32:00,
2013-06-03 18:37:00,67.7,56.3,29.98,NE,36,3.0,6.0,67,0.00,,,0.00,Wunderground v.1.15,2013-06-03 22:37:00,
2013-06-03 18:42:00,67.8,56.0,29.98,NNE,24,1.0,8.0,66,0.00,,,0.00,Wunderground v.1.15,2013-06-03 22:42:00,
2013-06-03 18:48:00,67.4,55.6,29.98,North,355,1.0,8.0,66,0.00,,,0.00,Wunderground v.1.15,2013-06-03 22:48:00,
2013-06-03 18:53:00,67.0,56.1,29.99,North,355,0.0,3.0,68,0.00,,,0.00,Wunderground v.1.15,2013-06-03 22:53:00,
2013-06-03 18:58:00,66.7,55.4,29.99,NE,42,4.0,4.0,67,0.00,,,0.00,Wunderground v.1.15,2013-06-03 22:58:00,
2013-06-03 19:04:00,66.4,55.5,29.99,NE,47,4.0,7.0,68,0.00,,,0.00,Wunderground v.1.15,2013-06-03 23:04:00,
2013-06-03 19:09:00,66.3,55.8,29.99,NW,317,1.0,7.0,69,0.00,,,0.00,Wunderground v.1.15,2013-06-03 23:09:00,
2013-06-03 19:14:00,66.2,55.3,29.99,NE,36,4.0,8.0,68,0.00,,,0.00,Wunderground v.1.15,2013-06-03 23:14:00,
2013-06-03 19:19:00,66.1,55.2,30.00,NNE,27,3.0,8.0,68,0.00,,,0.00,Wunderground v.1.15,2013-06-03 23:19:00,
2013-06-03 19:24:00,66.0,54.7,30.00,NE,38,2.0,9.0,67,0.00,,,0.00,Wunderground v.1.15,2013-06-03 23:24:00,
2013-06-03 19:29:00,65.9,55.0,30.00,NE,43,4.0,9.0,68,0.00,,,0.00,Wunderground v.1.15,2013-06-03 23:29:00,
2013-06-03 19:34:00,65.9,55.4,30.00,NE,39,0.0,4.0,69,0.00,,,0.00,Wunderground v.1.15,2013-06-03 23:34:00,
2013-06-03 19:39:00,65.9,55.0,30.01,NE,45,2.0,5.0,68,0.00,,,0.00,Wunderground v.1.15,2013-06-03 23:39:00,
2013-06-03 19:44:00,65.8,54.9,30.01,NNE,15,0.0,7.0,68,0.00,,,0.00,Wunderground v.1.15,2013-06-03 23:44:00,
2013-06-03 19:49:00,65.9,55.0,30.01,NE,48,5.0,7.0,68,0.00,,,0.00,Wunderground v.1.15,2013-06-03 23:49:00,
2013-06-03 19:54:00,65.8,54.9,30.01,NE,42,3.0,8.0,68,0.00,,,0.00,Wunderground v.1.15,2013-06-03 23:54:00,
2013-06-03 20:00:00,65.6,54.3,30.02,NE,48,3.0,3.0,67,0.00,,,0.00,Wunderground v.1.15,2013-06-04 00:00:00,
2013-06-03 20:05:00,65.4,54.2,30.02,NE,46,4.0,9.0,67,0.00,,,0.00,Wunderground v.1.15,2013-06-04 00:05:00,
2013-06-03 20:10:00,65.3,54.5,30.02,NW,317,2.0,3.0,68,0.00,,,0.00,Wunderground v.1.15,2013-06-04 00:10:00,
2013-06-03 20:15:00,65.1,53.9,30.02,NE,53,3.0,6.0,67,0.00,,,0.00,Wunderground v.1.15,2013-06-04 00:15:00,
2013-06-03 20:20:00,65.0,53.8,30.02,NE,47,3.0,3.0,67,0.00,,,0.00,Wunderground v.1.15,2013-06-04 00:20:00,
2013-06-03 20:25:00,65.0,54.2,30.02,NE,42,1.0,4.0,68,0.00,,,0.00,Wunderground v.1.15,2013-06-04 00:25:00,
2013-06-03 20:30:00,64.9,54.1,30.02,NE,48,2.0,3.0,68,0.00,,,0.00,Wunderground v.1.15,2013-06-04 00:30:00,
2013-06-03 20:35:00,64.7,53.5,30.03,ENE,57,1.0,4.0,67,0.00,,,0.00,Wunderground v.1.15,2013-06-04 00:35:00,
2013-06-03 20:41:00,64.6,53.4,30.02,ENE,57,2.0,2.0,67,0.00,,,0.00,Wunderground v.1.15,2013-06-04 00:41:00,
2013-06-03 20:46:00,64.5,53.3,30.03,ENE,57,2.0,4.0,67,0.00,,,0.00,Wunderground v.1.15,2013-06-04 00:46:00,
2013-06-03 20:51:00,64.2,53.4,30.03,ENE,57,0.0,1.0,68,0.00,,,0.00,Wunderground v.1.15,2013-06-04 00:51:00,
2013-06-03 20:56:00,64.0,53.2,30.03,ENE,57,1.0,3.0,68,0.00,,,0.00,Wunderground v.1.15,2013-06-04 00:56:00,
2013-06-03 21:01:00,63.7,52.9,30.03,NE,55,0.0,1.0,68,0.00,,,0.00,Wunderground v.1.15,2013-06-04 01:01:00,
2013-06-03 21:07:00,63.4,53.4,30.03,NE,55,0.0,3.0,70,0.00,,,0.00,Wunderground v.1.15,2013-06-04 01:07:00,
2013-06-03 21:12:00,63.2,53.3,30.03,NE,55,1.0,2.0,70,0.00,,,0.00,Wunderground v.1.15,2013-06-04 01:12:00,
2013-06-03 21:17:00,63.0,53.4,30.03,NE,55,0.0,2.0,71,0.00,,,0.00,Wunderground v.1.15,2013-06-04 01:17:00,
2013-06-03 21:22:00,62.7,53.5,30.04,NE,55,0.0,1.0,72,0.00,,,0.00,Wunderground v.1.15,2013-06-04 01:22:00,
2013-06-03 21:27:00,62.2,53.4,30.04,NE,55,0.0,1.0,73,0.00,,,0.00,Wunderground v.1.15,2013-06-04 01:27:00,
2013-06-03 21:33:00,61.6,53.2,30.04,NE,55,0.0,0.0,74,0.00,,,0.00,Wunderground v.1.15,2013-06-04 01:33:00,
2013-06-03 21:38:00,61.2,52.8,30.04,NE,55,0.0,0.0,74,0.00,,,0.00,Wunderground v.1.15,2013-06-04 01:38:00,
2013-06-03 21:43:00,60.9,52.6,30.04,NE,55,0.0,0.0,74,0.00,,,0.00,Wunderground v.1.15,2013-06-04 01:43:00,
2013-06-03 21:48:00,60.6,52.3,30.05,NE,55,0.0,0.0,74,0.00,,,0.00,Wunderground v.1.15,2013-06-04 01:48:00,
2013-06-03 21:54:00,60.4,52.4,30.05,NE,55,0.0,0.0,75,0.00,,,0.00,Wunderground v.1.15,2013-06-04 01:54:00,
2013-06-03 21:59:00,60.1,52.5,30.05,NE,55,0.0,0.0,76,0.00,,,0.00,Wunderground v.1.15,2013-06-04 01:59:00,
2013-06-03 22:04:00,59.8,52.6,30.05,NE,55,0.0,0.0,77,0.00,,,0.00,Wunderground v.1.15,2013-06-04 02:04:00,
2013-06-03 22:09:00,59.6,52.4,30.05,NE,55,0.0,0.0,77,0.00,,,0.00,Wunderground v.1.15,2013-06-04 02:09:00,
2013-06-03 22:14:00,59.4,52.2,30.05,NE,55,0.0,0.0,77,0.00,,,0.00,Wunderground v.1.15,2013-06-04 02:14:00,
2013-06-03 22:19:00,59.2,52.3,30.05,NE,55,0.0,0.0,78,0.00,,,0.00,Wunderground v.1.15,2013-06-04 02:19:00,
2013-06-03 22:24:00,59.1,52.2,30.06,NE,55,0.0,0.0,78,0.00,,,0.00,Wunderground v.1.15,2013-06-04 02:24:00,
2013-06-03 22:29:00,58.9,52.1,30.06,NE,55,0.0,0.0,78,0.00,,,0.00,Wunderground v.1.15,2013-06-04 02:29:00,
2013-06-03 22:35:00,58.6,52.1,30.06,NE,55,0.0,0.0,79,0.00,,,0.00,Wunderground v.1.15,2013-06-04 02:35:00,
2013-06-03 22:40:00,58.4,52.3,30.06,NE,55,0.0,0.0,80,0.00,,,0.00,Wunderground v.1.15,2013-06-04 02:40:00,
2013-06-03 22:45:00,58.1,52.3,30.06,NE,55,0.0,0.0,81,0.00,,,0.00,Wunderground v.1.15,2013-06-04 02:45:00,
2013-06-03 22:50:00,58.0,52.2,30.06,NE,55,0.0,0.0,81,0.00,,,0.00,Wunderground v.1.15,2013-06-04 02:50:00,
2013-06-03 22:55:00,57.7,51.9,30.06,NE,55,0.0,0.0,81,0.00,,,0.00,Wunderground v.1.15,2013-06-04 02:55:00,
2013-06-03 23:00:00,57.6,52.1,30.06,NE,55,0.0,0.0,82,0.00,,,0.00,Wunderground v.1.15,2013-06-04 03:00:00,
2013-06-03 23:06:00,57.4,51.6,30.06,NE,55,0.0,0.0,81,0.00,,,0.00,Wunderground v.1.15,2013-06-04 03:06:00,
2013-06-03 23:11:00,57.4,51.9,30.06,NE,55,0.0,1.0,82,0.00,,,0.00,Wunderground v.1.15,2013-06-04 03:11:00,
2013-06-03 23:16:00,57.4,51.6,30.06,NE,55,0.0,1.0,81,0.00,,,0.00,Wunderground v.1.15,2013-06-04 03:16:00,
2013-06-03 23:21:00,57.4,51.6,30.06,NE,55,0.0,0.0,81,0.00,,,0.00,Wunderground v.1.15,2013-06-04 03:21:00,
2013-06-03 23:26:00,57.4,51.6,30.07,NE,55,0.0,0.0,81,0.00,,,0.00,Wunderground v.1.15,2013-06-04 03:26:00,
2013-06-03 23:32:00,57.4,51.6,30.06,NE,55,0.0,0.0,81,0.00,,,0.00,Wunderground v.1.15,2013-06-04 03:32:00,
2013-06-03 23:37:00,57.4,51.6,30.07,NE,55,0.0,0.0,81,0.00,,,0.00,Wunderground v.1.15,2013-06-04 03:37:00,
2013-06-03 23:42:00,57.4,51.6,30.07,NE,55,0.0,0.0,81,0.00,,,0.00,Wunderground v.1.15,2013-06-04 03:42:00,
2013-06-03 23:47:00,57.3,51.5,30.07,NE,55,0.0,0.0,81,0.00,,,0.00,Wunderground v.1.15,2013-06-04 03:47:00,
2013-06-03 23:52:00,57.2,51.4,30.06,NE,55,0.0,0.0,81,0.00,,,0.00,Wunderground v.1.15,2013-06-04 03:52:00,
2013-06-03 23:57:00,57.2,51.4,30.06,NE,55,0.0,0.0,81,0.00,,,0.00,Wunderground v.1.15,2013-06-04 03:57:00,